createdAt,value
2022-11-15T00:04:42.919Z,86.56
2022-11-15T00:10:14.603Z,86.09
2022-11-15T00:15:46.418Z,85.87
2022-11-15T00:21:22.511Z,85.93
2022-11-15T00:26:54.197Z,85.49
2022-11-15T00:32:26.152Z,86.4
2022-11-15T00:37:57.627Z,85.76
2022-11-15T00:43:30.408Z,86.19
2022-11-15T00:49:01.511Z,85.98
2022-11-15T00:54:32.889Z,86.55
2022-11-15T00:54:49.699Z,86.36
2022-11-15T01:00:21.512Z,85.9
2022-11-15T01:05:53.191Z,85.16
2022-11-15T01:11:25.062Z,84.67
2022-11-15T01:16:56.683Z,85.22
2022-11-15T01:22:28.364Z,85.62
2022-11-15T01:28:00.354Z,85.62
2022-11-15T01:33:32.469Z,85.93
2022-11-15T01:39:03.566Z,85.28
2022-11-15T01:44:35.350Z,86.54
2022-11-15T01:50:07.077Z,85.68
2022-11-15T01:55:43.133Z,85.5
2022-11-15T02:01:14.994Z,86.15
2022-11-15T02:06:48.795Z,86.09
2022-11-15T02:12:18.229Z,86.22
2022-11-15T02:17:49.713Z,86.25
2022-11-15T02:23:22.025Z,86.58
2022-11-15T02:28:53.401Z,85.87
2022-11-15T02:34:25.049Z,86.12
2022-11-15T02:39:56.896Z,85.72
2022-11-15T02:45:28.538Z,86.07
2022-11-15T02:51:00.221Z,85.96
2022-11-15T02:56:36.354Z,86.92
2022-11-15T03:02:08.094Z,86.84
2022-11-15T03:07:40.340Z,87.41
2022-11-15T03:13:11.497Z,87.56
2022-11-15T03:18:43.269Z,87.81
2022-11-15T03:24:15.627Z,87.99
2022-11-15T03:29:46.692Z,88.34
2022-11-15T03:35:18.452Z,89.14
2022-11-15T03:40:50.108Z,88.2
2022-11-15T03:46:21.836Z,88.25
2022-11-15T03:51:53.641Z,88.69
2022-11-15T03:57:29.761Z,88.23
2022-11-15T04:03:01.433Z,88.65
2022-11-15T04:08:33.162Z,89.51
2022-11-15T04:14:04.926Z,89.64
2022-11-15T04:19:36.590Z,89.02
2022-11-15T04:25:08.342Z,88.46
2022-11-15T04:30:40.056Z,88.78
2022-11-15T04:36:11.846Z,88.5
2022-11-15T04:41:43.454Z,89.0
2022-11-15T04:47:15.205Z,88.73
2022-11-15T04:52:47.142Z,88.79
2022-11-15T04:58:25.014Z,89.04
2022-11-15T05:03:56.779Z,88.98
2022-11-15T05:09:28.513Z,88.97
2022-11-15T05:15:00.203Z,88.43
2022-11-15T05:20:32.166Z,88.82
2022-11-15T05:26:09.420Z,88.13
2022-11-15T05:31:35.368Z,88.51
2022-11-15T05:37:07.130Z,88.52
2022-11-15T05:42:38.900Z,88.54
2022-11-15T05:48:11.044Z,88.53
2022-11-15T05:53:43.015Z,89.01
2022-11-15T05:59:21.259Z,87.56
2022-11-15T06:04:52.143Z,87.66
2022-11-15T06:10:23.903Z,87.21
2022-11-15T06:15:55.688Z,87.23
2022-11-15T06:21:27.540Z,87.27
2022-11-15T06:26:59.163Z,87.75
2022-11-15T06:32:30.675Z,88.43
2022-11-15T06:38:02.553Z,88.31
2022-11-15T06:43:34.730Z,89.4
2022-11-15T06:49:10.005Z,88.84
2022-11-15T06:54:38.401Z,90.12
2022-11-15T07:00:13.850Z,90.2
2022-11-15T07:05:45.646Z,89.83
2022-11-15T07:11:17.280Z,89.6
2022-11-15T07:16:48.987Z,89.08
2022-11-15T07:22:20.665Z,89.2
2022-11-15T07:27:52.549Z,88.74
2022-11-15T07:33:24.552Z,88.03
2022-11-15T07:38:56.031Z,87.95
2022-11-15T07:44:27.645Z,87.3
2022-11-15T07:49:59.383Z,87.41
2022-11-15T07:55:31.114Z,87.1
2022-11-15T08:01:09.697Z,86.28
2022-11-15T08:06:40.950Z,86.8
2022-11-15T08:12:12.714Z,86.24
2022-11-15T08:17:44.437Z,85.9
2022-11-15T08:23:16.378Z,86.02
2022-11-15T08:28:47.858Z,85.99
2022-11-15T08:34:19.575Z,85.43
2022-11-15T08:39:52.000Z,85.0
2022-11-15T08:45:22.952Z,83.53
2022-11-15T08:50:54.888Z,84.09
2022-11-15T08:56:26.447Z,83.89
2022-11-15T09:02:04.977Z,83.04
2022-11-15T09:07:36.300Z,83.89
2022-11-15T09:13:08.073Z,83.19
2022-11-15T09:18:39.637Z,84.22
2022-11-15T09:24:11.375Z,82.4
2022-11-15T09:29:44.704Z,82.72
2022-11-15T09:35:14.839Z,82.85
2022-11-15T09:40:46.690Z,82.73
2022-11-15T09:46:18.592Z,82.64
2022-11-15T09:51:50.018Z,82.24
2022-11-15T09:57:21.723Z,81.76
2022-11-15T10:02:57.821Z,82.36
2022-11-15T10:08:30.504Z,83.55
2022-11-15T10:14:01.621Z,81.99
2022-11-15T10:19:33.110Z,82.14
2022-11-15T10:25:04.791Z,82.64
2022-11-15T10:30:37.319Z,82.75
2022-11-15T10:36:08.217Z,82.12
2022-11-15T10:41:40.726Z,83.21
2022-11-15T10:47:11.765Z,82.08
2022-11-15T10:52:43.327Z,82.54
2022-11-15T10:58:15.088Z,83.54
2022-11-15T11:03:53.687Z,82.83
2022-11-15T11:09:25.018Z,83.78
2022-11-15T11:14:56.621Z,83.4
2022-11-15T11:20:28.458Z,83.82
2022-11-15T11:26:00.690Z,83.43
2022-11-15T11:31:31.832Z,84.03
2022-11-15T11:37:03.579Z,83.9
2022-11-15T11:42:35.277Z,83.76
2022-11-15T11:48:07.039Z,84.3
2022-11-15T11:53:38.923Z,84.46
2022-11-15T11:59:10.451Z,83.99
2022-11-15T12:04:46.600Z,83.99
2022-11-15T12:10:19.248Z,83.11
2022-11-15T12:15:50.011Z,83.43
2022-11-15T12:21:28.901Z,82.38
2022-11-15T12:26:53.411Z,82.0
2022-11-15T12:32:25.123Z,82.76
2022-11-15T12:37:56.842Z,83.98
2022-11-15T12:43:28.606Z,83.49
2022-11-15T12:49:00.339Z,83.43
2022-11-15T12:54:32.093Z,83.19
2022-11-15T13:00:03.826Z,83.89
2022-11-15T13:05:39.919Z,83.54
2022-11-15T13:11:11.601Z,83.85
2022-11-15T13:16:43.405Z,83.63
2022-11-15T13:22:15.054Z,84.57
2022-11-15T13:27:46.741Z,85.04
2022-11-15T13:33:18.678Z,84.74
2022-11-15T13:38:50.251Z,85.26
2022-11-15T13:44:22.005Z,85.25
2022-11-15T13:49:53.659Z,85.64
2022-11-15T13:55:25.585Z,85.81
2022-11-15T14:00:57.194Z,86.25
2022-11-15T14:06:35.190Z,86.35
2022-11-15T14:12:06.922Z,86.78
2022-11-15T14:17:38.782Z,87.24
2022-11-15T14:23:10.374Z,86.9
2022-11-15T14:28:42.091Z,86.88
2022-11-15T14:34:13.844Z,87.16
2022-11-15T14:39:45.607Z,87.52
2022-11-15T14:45:17.323Z,87.49
2022-11-15T14:50:48.995Z,88.29
2022-11-15T14:56:20.763Z,88.41
2022-11-15T15:01:52.556Z,89.01
2022-11-15T15:07:30.926Z,88.36
2022-11-15T15:13:02.352Z,88.18
2022-11-15T15:18:34.693Z,88.03
2022-11-15T15:24:05.780Z,87.4
2022-11-15T15:29:37.548Z,87.24
2022-11-15T15:35:09.388Z,87.49
2022-11-15T15:40:41.791Z,87.4
2022-11-15T15:46:12.990Z,87.59
2022-11-15T15:51:44.470Z,88.07
2022-11-15T15:57:16.166Z,87.51
2022-11-15T16:02:47.902Z,87.16
2022-11-15T16:08:24.050Z,86.98
2022-11-15T16:13:56.403Z,87.05
2022-11-15T16:19:27.430Z,86.5
2022-11-15T16:24:59.203Z,86.76
2022-11-15T16:30:31.109Z,87.02
2022-11-15T16:36:02.587Z,86.5
2022-11-15T16:41:34.307Z,85.81
2022-11-15T16:47:06.233Z,85.93
2022-11-15T16:52:37.903Z,85.75
2022-11-15T16:58:09.590Z,86.03
2022-11-15T17:03:41.440Z,85.96
2022-11-15T17:09:17.476Z,85.15
2022-11-15T17:14:49.111Z,84.76
2022-11-15T17:20:21.031Z,84.6
2022-11-15T17:25:52.643Z,84.71
2022-11-15T17:31:24.345Z,84.18
2022-11-15T17:36:56.107Z,84.87
2022-11-15T17:42:27.660Z,84.41
2022-11-15T17:47:59.556Z,84.5
2022-11-15T17:53:31.127Z,84.47
2022-11-15T17:59:04.920Z,84.52
2022-11-15T18:04:34.664Z,84.74
2022-11-15T18:10:10.934Z,84.9
2022-11-15T18:15:42.537Z,85.66
2022-11-15T18:21:14.211Z,86.69
2022-11-15T18:26:46.118Z,87.46
2022-11-15T18:32:17.803Z,88.08
2022-11-15T18:37:49.470Z,88.17
2022-11-15T18:43:21.038Z,88.42
2022-11-15T18:48:52.842Z,87.91
2022-11-15T18:54:31.734Z,90.07
2022-11-15T18:55:31.237Z,90.07
2022-11-15T18:59:56.299Z,90.84
2022-11-15T19:05:28.003Z,91.68
2022-11-15T19:11:06.138Z,92.04
2022-11-15T19:16:37.730Z,92.57
2022-11-15T19:22:09.625Z,94.32
2022-11-15T19:27:41.427Z,94.45
2022-11-15T19:33:13.165Z,94.6
2022-11-15T19:38:44.687Z,94.24
2022-11-15T19:44:16.880Z,94.41
2022-11-15T19:49:48.385Z,94.31
2022-11-15T19:55:19.801Z,94.16
2022-11-15T20:00:51.758Z,95.38
2022-11-15T20:06:23.443Z,95.34
2022-11-15T20:12:03.693Z,96.18
2022-11-15T20:17:35.293Z,95.75
2022-11-15T20:23:07.026Z,95.8
2022-11-15T20:28:38.891Z,96.46
2022-11-15T20:34:10.432Z,95.42
2022-11-15T20:39:43.015Z,95.98
2022-11-15T20:45:14.723Z,95.96
2022-11-15T20:50:46.563Z,95.31
2022-11-15T20:56:18.100Z,95.56
2022-11-15T21:01:50.143Z,95.67
2022-11-15T21:07:21.711Z,95.49
2022-11-15T21:12:57.779Z,95.16
2022-11-15T21:18:29.536Z,95.46
2022-11-15T21:24:01.136Z,95.03
2022-11-15T21:29:32.801Z,94.97
2022-11-15T21:35:04.683Z,94.83
2022-11-15T21:40:36.359Z,95.57
2022-11-15T21:46:09.212Z,96.56
2022-11-15T21:51:40.803Z,96.29
2022-11-15T21:57:12.610Z,95.74
2022-11-15T22:02:44.280Z,96.56
2022-11-15T22:08:16.047Z,97.62
2022-11-15T22:13:52.146Z,98.19
2022-11-15T22:19:24.012Z,98.27
2022-11-15T22:24:56.082Z,98.42
2022-11-15T22:30:27.599Z,97.88
2022-11-15T22:35:59.193Z,97.86
2022-11-15T22:41:30.947Z,98.88
2022-11-15T22:47:02.643Z,100.0
2022-11-15T22:52:34.294Z,100.0
2022-11-15T22:58:06.063Z,100.0
2022-11-15T23:03:37.949Z,100.0
2022-11-15T23:09:10.063Z,100.0
2022-11-15T23:14:45.663Z,100.0
2022-11-15T23:20:42.296Z,100.0
2022-11-15T23:25:49.055Z,100.0
2022-11-15T23:31:20.844Z,100.0
2022-11-15T23:36:52.435Z,100.0
2022-11-15T23:42:24.236Z,100.0
2022-11-15T23:48:01.832Z,100.0
2022-11-15T23:53:27.717Z,100.0
2022-11-15T23:58:59.407Z,100.0
